createdAt,value
2023-05-14T00:01:54.156Z,14.17
2023-05-14T00:04:21.568Z,13.43
2023-05-14T00:06:51.942Z,16.15
2023-05-14T00:09:22.519Z,13.32
2023-05-14T00:11:51.005Z,13.65
2023-05-14T00:16:45.459Z,10.50
2023-05-14T00:19:13.045Z,11.55
2023-05-14T00:21:40.438Z,10.95
2023-05-14T00:24:08.023Z,13.07
2023-05-14T00:26:35.280Z,10.40
2023-05-14T00:29:02.508Z,13.10
2023-05-14T00:31:29.967Z,10.57
2023-05-14T00:33:57.225Z,12.48
2023-05-14T00:36:24.635Z,10.10
2023-05-14T00:38:52.079Z,11.38
2023-05-14T00:41:19.531Z,14.48
2023-05-14T00:43:47.101Z,16.52
2023-05-14T00:46:15.463Z,12.60
2023-05-14T00:48:42.905Z,14.10
2023-05-14T00:51:10.944Z,14.10
2023-05-14T00:53:38.254Z,11.75
2023-05-14T00:56:07.100Z,12.18
2023-05-14T00:58:34.623Z,9.57
2023-05-14T01:01:01.937Z,11.83
2023-05-14T01:03:31.862Z,9.00
2023-05-14T01:06:47.177Z,8.65
2023-05-14T01:09:39.295Z,10.20
2023-05-14T01:12:33.569Z,8.98
2023-05-14T01:15:21.938Z,12.70
2023-05-14T01:17:56.563Z,8.85
2023-05-14T01:20:24.572Z,8.30
2023-05-14T01:22:52.031Z,13.65
2023-05-14T01:25:20.268Z,10.90
2023-05-14T01:28:31.171Z,10.55
2023-05-14T01:31:13.880Z,8.48
2023-05-14T01:33:43.935Z,9.27
2023-05-14T01:36:11.767Z,14.25
2023-05-14T01:38:39.769Z,10.07
2023-05-14T01:41:07.590Z,8.73
2023-05-14T01:43:36.339Z,8.77
2023-05-14T01:46:05.272Z,10.00
2023-05-14T01:48:32.725Z,11.10
2023-05-14T01:51:00.019Z,10.52
2023-05-14T01:53:27.731Z,9.18
2023-05-14T01:55:55.189Z,9.82
2023-05-14T01:58:22.548Z,7.78
2023-05-14T02:00:51.640Z,9.65
2023-05-14T02:03:18.885Z,9.63
2023-05-14T02:05:46.350Z,6.97
2023-05-14T02:08:13.621Z,12.45
2023-05-14T02:10:40.913Z,9.07
2023-05-14T02:13:09.671Z,7.75
2023-05-14T02:15:37.037Z,11.00
2023-05-14T02:18:04.598Z,8.20
2023-05-14T02:20:31.941Z,7.37
2023-05-14T02:22:59.180Z,8.48
2023-05-14T02:25:26.438Z,8.57
2023-05-14T02:27:53.700Z,10.20
2023-05-14T02:30:22.791Z,12.93
2023-05-14T02:32:50.601Z,14.70
2023-05-14T02:35:17.944Z,16.10
2023-05-14T02:37:45.397Z,12.70
2023-05-14T02:40:13.801Z,7.22
2023-05-14T02:45:08.595Z,8.70
2023-05-14T02:47:38.012Z,12.27
2023-05-14T02:50:06.819Z,9.45
2023-05-14T02:55:01.975Z,14.35
2023-05-14T02:57:29.286Z,9.15
2023-05-14T02:59:56.510Z,9.90
2023-05-14T03:02:24.284Z,8.90
2023-05-14T03:04:51.922Z,13.57
2023-05-14T03:07:19.254Z,8.75
2023-05-14T03:09:46.555Z,9.82
2023-05-14T03:12:14.453Z,8.82
2023-05-14T03:14:41.644Z,10.50
2023-05-14T03:17:09.049Z,9.18
2023-05-14T03:19:36.338Z,8.40
2023-05-14T03:22:04.468Z,13.98
2023-05-14T03:24:31.879Z,7.93
2023-05-14T03:26:59.155Z,9.48
2023-05-14T03:29:26.494Z,7.55
2023-05-14T03:31:54.695Z,8.43
2023-05-14T03:34:22.312Z,6.97
2023-05-14T03:36:49.703Z,9.70
2023-05-14T03:39:20.165Z,8.52
2023-05-14T03:41:48.479Z,8.52
2023-05-14T03:44:15.799Z,7.90
2023-05-14T03:46:43.020Z,8.80
2023-05-14T03:49:10.627Z,8.98
2023-05-14T03:51:38.061Z,9.30
2023-05-14T03:54:05.709Z,6.72
2023-05-14T03:56:33.031Z,6.30
2023-05-14T03:59:00.781Z,6.55
2023-05-14T04:01:28.044Z,8.15
2023-05-14T04:03:55.641Z,7.95
2023-05-14T04:06:23.053Z,6.07
2023-05-14T04:08:50.477Z,8.13
2023-05-14T04:11:18.740Z,10.00
2023-05-14T04:13:46.461Z,7.38
2023-05-14T04:16:13.740Z,8.13
2023-05-14T04:18:41.352Z,7.13
2023-05-14T04:21:09.651Z,11.63
2023-05-14T04:23:37.019Z,7.10
2023-05-14T04:26:05.428Z,5.82
2023-05-14T04:28:32.731Z,5.72
2023-05-14T04:31:00.109Z,9.18
2023-05-14T04:33:27.554Z,8.88
2023-05-14T04:35:54.829Z,9.57
2023-05-14T04:38:22.079Z,7.80
2023-05-14T04:40:49.383Z,6.07
2023-05-14T04:43:17.545Z,7.07
2023-05-14T04:45:44.952Z,5.05
2023-05-14T04:48:12.504Z,4.87
2023-05-14T04:50:43.844Z,7.15
2023-05-14T04:53:11.861Z,9.52
2023-05-14T04:55:39.199Z,7.60
2023-05-14T04:58:06.513Z,8.57
2023-05-14T05:00:34.241Z,6.90
2023-05-14T05:03:01.614Z,7.13
2023-05-14T05:05:29.003Z,5.90
2023-05-14T05:07:56.372Z,7.28
2023-05-14T05:10:24.252Z,7.15
2023-05-14T05:12:51.749Z,6.95
2023-05-14T05:15:19.067Z,10.95
2023-05-14T05:17:46.441Z,9.40
2023-05-14T05:20:13.924Z,8.70
2023-05-14T05:22:41.648Z,7.22
2023-05-14T05:25:10.296Z,6.07
2023-05-14T05:27:37.543Z,8.02
2023-05-14T05:30:06.540Z,6.13
2023-05-14T05:32:34.150Z,7.72
2023-05-14T05:35:01.517Z,8.07
2023-05-14T05:37:28.887Z,7.40
2023-05-14T05:39:56.266Z,8.25
2023-05-14T05:42:23.657Z,8.40
2023-05-14T05:44:52.103Z,7.22
2023-05-14T05:49:46.717Z,5.53
2023-05-14T05:52:14.060Z,5.78
2023-05-14T05:54:41.378Z,7.65
2023-05-14T05:57:10.003Z,5.85
2023-05-14T05:59:37.387Z,9.15
2023-05-14T06:02:05.143Z,7.65
2023-05-14T06:04:32.593Z,6.72
2023-05-14T06:06:59.843Z,7.38
2023-05-14T06:09:29.731Z,8.82
2023-05-14T06:11:58.521Z,8.40
2023-05-14T06:14:25.843Z,6.88
2023-05-14T06:16:53.324Z,7.28
2023-05-14T06:19:20.802Z,8.55
2023-05-14T06:21:50.737Z,9.35
2023-05-14T06:24:20.809Z,7.75
2023-05-14T06:26:49.414Z,7.43
2023-05-14T06:29:16.734Z,8.23
2023-05-14T06:31:44.088Z,8.40
2023-05-14T06:34:11.401Z,6.20
2023-05-14T06:36:40.284Z,7.70
2023-05-14T06:39:07.571Z,6.97
2023-05-14T06:41:35.227Z,8.48
2023-05-14T06:44:03.723Z,6.85
2023-05-14T06:48:59.440Z,7.53
2023-05-14T06:51:27.294Z,8.98
2023-05-14T06:53:56.262Z,7.73
2023-05-14T06:56:23.664Z,6.80
2023-05-14T06:58:51.185Z,12.82
2023-05-14T07:01:18.881Z,9.33
2023-05-14T07:03:46.317Z,10.98
2023-05-14T07:06:14.161Z,8.00
2023-05-14T07:08:41.965Z,8.95
2023-05-14T07:11:15.494Z,6.68
2023-05-14T07:13:43.666Z,6.13
2023-05-14T07:16:10.924Z,5.80
2023-05-14T07:18:38.609Z,7.88
2023-05-14T07:21:06.715Z,7.55
2023-05-14T07:23:36.662Z,10.25
2023-05-14T07:26:08.162Z,9.05
2023-05-14T07:28:36.072Z,8.02
2023-05-14T07:31:09.166Z,6.85
2023-05-14T07:33:38.326Z,6.53
2023-05-14T07:36:07.906Z,7.35
2023-05-14T07:38:35.601Z,7.55
2023-05-14T07:41:03.284Z,9.30
2023-05-14T07:43:31.233Z,6.40
2023-05-14T07:45:58.778Z,9.15
2023-05-14T07:48:26.178Z,7.90
2023-05-14T07:50:54.079Z,9.23
2023-05-14T07:53:22.137Z,9.52
2023-05-14T07:55:49.845Z,10.50
2023-05-14T07:58:17.098Z,8.60
2023-05-14T08:00:46.711Z,7.30
2023-05-14T08:03:14.153Z,7.57
2023-05-14T08:05:41.524Z,7.47
2023-05-14T08:08:12.630Z,6.85
2023-05-14T08:10:40.111Z,8.55
2023-05-14T08:13:07.440Z,7.43
2023-05-14T08:15:34.999Z,6.18
2023-05-14T08:18:03.852Z,7.63
2023-05-14T08:20:31.743Z,8.23
2023-05-14T08:22:59.117Z,9.52
2023-05-14T08:25:26.413Z,12.02
2023-05-14T08:27:54.330Z,7.55
2023-05-14T08:30:23.085Z,8.35
2023-05-14T08:32:50.951Z,9.95
2023-05-14T08:35:19.164Z,14.33
2023-05-14T08:37:46.613Z,6.65
2023-05-14T08:40:14.189Z,10.82
2023-05-14T08:42:45.224Z,10.50
2023-05-14T08:45:26.218Z,8.32
2023-05-14T08:47:58.045Z,7.10
2023-05-14T08:50:30.328Z,6.00
2023-05-14T08:52:58.378Z,7.60
2023-05-14T08:55:28.326Z,8.88
2023-05-14T08:58:02.121Z,7.40
2023-05-14T09:00:29.846Z,6.97
2023-05-14T09:02:59.147Z,6.95
2023-05-14T09:05:26.825Z,10.75
2023-05-14T09:07:57.413Z,7.22
2023-05-14T09:10:25.082Z,10.77
2023-05-14T09:12:52.615Z,9.77
2023-05-14T09:15:24.931Z,6.72
2023-05-14T09:17:53.536Z,7.45
2023-05-14T09:20:21.758Z,9.10
2023-05-14T09:25:32.213Z,10.25
2023-05-14T09:28:01.206Z,11.20
2023-05-14T09:30:28.636Z,12.93
2023-05-14T09:32:56.770Z,8.63
2023-05-14T09:35:32.726Z,7.57
2023-05-14T09:38:04.146Z,9.27
2023-05-14T09:40:31.523Z,8.18
2023-05-14T09:42:59.720Z,7.63
2023-05-14T09:45:26.965Z,9.73
2023-05-14T09:47:54.373Z,7.85
2023-05-14T09:50:21.898Z,9.10
2023-05-14T09:52:50.547Z,10.77
2023-05-14T09:57:47.127Z,7.88
2023-05-14T10:00:16.163Z,10.38
2023-05-14T10:02:47.028Z,7.63
2023-05-14T10:05:16.024Z,8.93
2023-05-14T10:07:48.621Z,8.65
2023-05-14T10:10:28.535Z,9.05
2023-05-14T10:13:06.615Z,10.80
2023-05-14T10:15:49.153Z,10.13
2023-05-14T10:18:25.404Z,10.60
2023-05-14T10:21:08.100Z,9.07
2023-05-14T10:23:38.166Z,10.40
2023-05-14T10:26:06.656Z,9.00
2023-05-14T10:31:06.708Z,11.48
2023-05-14T10:33:50.617Z,9.95
2023-05-14T10:36:47.281Z,8.98
2023-05-14T10:39:14.635Z,9.25
2023-05-14T10:41:45.396Z,8.10
2023-05-14T10:44:19.168Z,9.13
2023-05-14T10:46:50.067Z,9.85
2023-05-14T10:49:28.838Z,8.90
2023-05-14T10:52:03.752Z,9.27
2023-05-14T10:54:35.922Z,10.95
2023-05-14T10:57:03.275Z,8.52
2023-05-14T10:59:30.634Z,9.18
2023-05-14T11:01:58.209Z,7.85
2023-05-14T11:04:27.827Z,8.57
2023-05-14T11:06:59.015Z,8.75
2023-05-14T11:09:26.557Z,7.20
2023-05-14T11:11:54.660Z,7.13
2023-05-14T11:14:23.275Z,10.32
2023-05-14T11:16:51.274Z,8.65
2023-05-14T11:19:22.454Z,8.88
2023-05-14T11:21:49.746Z,10.23
2023-05-14T11:24:17.299Z,13.07
2023-05-14T11:26:46.193Z,9.93
2023-05-14T11:29:13.546Z,8.00
2023-05-14T11:31:41.672Z,7.25
2023-05-14T11:34:10.094Z,9.45
2023-05-14T11:36:38.084Z,10.18
2023-05-14T11:39:05.587Z,8.35
2023-05-14T11:41:33.973Z,9.77
2023-05-14T11:44:01.400Z,8.68
2023-05-14T11:46:30.957Z,9.80
2023-05-14T11:48:58.308Z,10.13
2023-05-14T11:51:25.594Z,8.13
2023-05-14T11:53:54.498Z,7.50
2023-05-14T11:56:22.668Z,7.85
2023-05-14T11:58:57.797Z,9.85
2023-05-14T12:01:26.269Z,7.43
2023-05-14T12:06:32.383Z,8.25
2023-05-14T12:09:01.633Z,7.00
2023-05-14T12:11:32.341Z,6.22
2023-05-14T12:14:00.373Z,10.38
2023-05-14T12:16:35.430Z,11.18
2023-05-14T12:19:04.177Z,9.45
2023-05-14T12:21:32.108Z,9.38
2023-05-14T12:24:02.422Z,10.23
2023-05-14T12:26:33.983Z,9.50
2023-05-14T12:29:03.646Z,8.98
2023-05-14T12:31:37.172Z,9.60
2023-05-14T12:34:04.859Z,7.80
2023-05-14T12:36:34.575Z,8.30
2023-05-14T12:39:04.374Z,8.27
2023-05-14T12:41:34.522Z,7.82
2023-05-14T12:44:04.980Z,8.32
2023-05-14T12:46:34.288Z,7.70
2023-05-14T12:49:01.759Z,9.60
2023-05-14T12:51:32.738Z,7.35
2023-05-14T12:54:00.117Z,7.22
2023-05-14T12:56:28.568Z,9.52
2023-05-14T13:01:24.958Z,10.20
2023-05-14T13:03:52.843Z,6.88
2023-05-14T13:06:20.122Z,7.95
2023-05-14T13:08:47.479Z,10.45
2023-05-14T13:11:15.065Z,8.52
2023-05-14T13:13:42.478Z,8.67
2023-05-14T13:16:09.979Z,9.32
2023-05-14T13:18:37.437Z,8.13
2023-05-14T13:21:06.785Z,7.45
2023-05-14T13:23:35.477Z,7.97
2023-05-14T13:26:03.434Z,7.95
2023-05-14T13:28:30.782Z,8.88
2023-05-14T13:31:09.077Z,9.65
2023-05-14T13:33:38.696Z,10.57
2023-05-14T13:36:06.717Z,8.18
2023-05-14T13:38:34.412Z,10.07
2023-05-14T13:41:04.817Z,7.63
2023-05-14T13:43:33.863Z,9.05
2023-05-14T13:46:05.419Z,7.90
2023-05-14T13:48:33.227Z,15.18
2023-05-14T13:51:01.576Z,7.70
2023-05-14T13:53:28.980Z,13.27
2023-05-14T13:55:59.464Z,7.60
2023-05-14T13:58:30.000Z,10.07
2023-05-14T14:00:57.320Z,9.50
2023-05-14T14:03:25.964Z,9.10
2023-05-14T14:05:53.394Z,7.78
2023-05-14T14:08:23.232Z,8.55
2023-05-14T14:10:52.581Z,8.35
2023-05-14T14:13:21.297Z,8.63
2023-05-14T14:15:49.183Z,8.23
2023-05-14T14:18:16.632Z,8.90
2023-05-14T14:20:44.057Z,9.02
2023-05-14T14:23:11.419Z,9.55
2023-05-14T14:25:38.964Z,8.95
2023-05-14T14:28:06.212Z,8.57
2023-05-14T14:30:33.592Z,12.30
2023-05-14T14:33:01.426Z,10.27
2023-05-14T14:35:29.025Z,8.98
2023-05-14T14:37:56.275Z,14.23
2023-05-14T14:40:29.428Z,11.35
2023-05-14T14:42:56.688Z,14.93
2023-05-14T14:45:24.202Z,11.63
2023-05-14T14:47:51.795Z,12.70
2023-05-14T14:50:22.259Z,9.38
2023-05-14T14:52:49.550Z,8.65
2023-05-14T14:55:20.419Z,12.73
2023-05-14T15:01:10.900Z,11.25
2023-05-14T15:03:45.629Z,14.50
2023-05-14T15:06:12.909Z,10.95
2023-05-14T15:08:40.219Z,11.50
2023-05-14T15:11:48.571Z,10.38
2023-05-14T15:14:15.934Z,10.35
2023-05-14T15:16:50.917Z,16.02
2023-05-14T15:19:22.017Z,11.23
2023-05-14T15:21:49.594Z,11.37
2023-05-14T15:24:17.002Z,13.87
2023-05-14T15:26:44.364Z,10.38
2023-05-14T15:29:11.666Z,10.80
2023-05-14T15:31:39.082Z,12.50
2023-05-14T15:34:06.693Z,14.30
2023-05-14T15:36:33.996Z,13.00
2023-05-14T15:39:01.369Z,12.02
2023-05-14T15:41:31.310Z,10.45
2023-05-14T15:43:59.200Z,10.55
2023-05-14T15:46:27.679Z,12.95
2023-05-14T15:48:54.943Z,8.32
2023-05-14T15:51:22.241Z,10.18
2023-05-14T15:53:49.656Z,8.43
2023-05-14T15:56:26.858Z,13.45
2023-05-14T15:58:56.706Z,10.40
2023-05-14T16:01:27.280Z,10.02
2023-05-14T16:03:54.945Z,12.35
2023-05-14T16:06:22.264Z,8.10
2023-05-14T16:08:52.577Z,9.15
2023-05-14T16:11:20.104Z,10.23
2023-05-14T16:13:47.673Z,13.97
2023-05-14T16:16:20.835Z,12.50
2023-05-14T16:18:49.101Z,9.23
2023-05-14T16:21:16.482Z,9.18
2023-05-14T16:23:43.908Z,10.07
2023-05-14T16:26:11.382Z,8.30
2023-05-14T16:28:41.278Z,11.68
2023-05-14T16:31:09.010Z,8.80
2023-05-14T16:33:37.265Z,8.35
2023-05-14T16:36:05.561Z,16.00
2023-05-14T16:38:38.589Z,10.50
2023-05-14T16:41:11.733Z,10.40
2023-05-14T16:43:41.419Z,10.70
2023-05-14T16:46:12.284Z,9.85
2023-05-14T16:48:42.911Z,10.23
2023-05-14T16:51:16.424Z,9.30
2023-05-14T16:53:45.480Z,11.88
2023-05-14T16:57:05.230Z,12.02
2023-05-14T16:59:34.584Z,13.15
2023-05-14T17:02:02.068Z,11.60
2023-05-14T17:04:29.562Z,11.30
2023-05-14T17:06:57.542Z,11.20
2023-05-14T17:09:24.907Z,8.27
2023-05-14T17:11:52.275Z,13.88
2023-05-14T17:14:20.716Z,11.15
2023-05-14T17:19:50.003Z,9.73
2023-05-14T17:22:17.279Z,8.52
2023-05-14T17:24:46.939Z,11.23
2023-05-14T17:27:20.088Z,13.77
2023-05-14T17:29:50.389Z,10.98
2023-05-14T17:32:18.740Z,9.93
2023-05-14T17:34:47.190Z,10.73
2023-05-14T17:37:27.995Z,12.57
2023-05-14T17:39:55.528Z,10.77
2023-05-14T17:48:18.017Z,14.05
2023-05-14T17:50:45.611Z,13.43
2023-05-14T17:53:16.204Z,11.15
2023-05-14T17:55:43.893Z,12.32
2023-05-14T17:58:13.605Z,12.30
2023-05-14T18:00:44.179Z,11.63
2023-05-14T18:03:11.990Z,9.77
2023-05-14T18:05:39.476Z,11.95
2023-05-14T18:08:06.828Z,11.75
2023-05-14T18:10:34.180Z,12.68
2023-05-14T18:13:03.780Z,13.20
2023-05-14T18:15:34.516Z,11.32
2023-05-14T18:18:05.810Z,12.18
2023-05-14T18:20:35.539Z,12.88
2023-05-14T18:23:03.339Z,12.35
2023-05-14T18:25:30.804Z,13.15
2023-05-14T18:27:58.392Z,13.80
2023-05-14T18:30:25.915Z,11.77
2023-05-14T18:32:56.282Z,15.33
2023-05-14T18:35:26.762Z,11.32
2023-05-14T18:37:55.075Z,14.68
2023-05-14T18:40:22.596Z,12.68
2023-05-14T18:43:00.442Z,16.30
2023-05-14T18:45:27.932Z,14.98
2023-05-14T18:47:56.279Z,11.98
2023-05-14T18:50:23.676Z,13.70
2023-05-14T18:52:50.910Z,16.13
2023-05-14T18:55:18.244Z,12.02
2023-05-14T18:57:46.825Z,10.10
2023-05-14T19:00:14.949Z,12.02
2023-05-14T19:02:48.102Z,12.25
2023-05-14T19:05:24.113Z,10.75
2023-05-14T19:07:51.649Z,13.77
2023-05-14T19:10:19.101Z,10.23
2023-05-14T19:12:47.827Z,12.50
2023-05-14T19:15:15.682Z,11.55
2023-05-14T19:17:43.149Z,14.23
2023-05-14T19:20:15.653Z,13.20
2023-05-14T19:22:43.038Z,9.90
2023-05-14T19:25:11.383Z,11.30
2023-05-14T19:27:39.254Z,12.25
2023-05-14T19:30:10.312Z,12.77
2023-05-14T19:32:38.164Z,17.38
2023-05-14T19:35:06.849Z,13.40
2023-05-14T19:37:34.155Z,6.00
2023-05-14T19:40:01.568Z,8.63
2023-05-14T19:42:29.026Z,8.85
2023-05-14T19:44:56.228Z,7.47
2023-05-14T19:47:24.871Z,9.73
2023-05-14T19:49:53.833Z,6.97
2023-05-14T19:52:21.084Z,7.10
2023-05-14T19:54:48.374Z,8.73
2023-05-14T19:57:15.737Z,7.57
2023-05-14T19:59:44.509Z,5.68
2023-05-14T20:02:18.890Z,7.07
2023-05-14T20:04:49.541Z,7.10
2023-05-14T20:07:20.663Z,5.97
2023-05-14T20:09:48.234Z,8.43
2023-05-14T20:12:19.549Z,5.85
2023-05-14T20:14:49.087Z,6.85
2023-05-14T20:17:16.609Z,5.63
2023-05-14T20:19:46.962Z,6.70
2023-05-14T20:22:16.164Z,7.43
2023-05-14T20:24:44.240Z,8.68
2023-05-14T20:27:12.007Z,6.90
2023-05-14T20:29:39.737Z,7.03
2023-05-14T20:32:07.657Z,7.70
2023-05-14T20:34:34.920Z,8.13
2023-05-14T20:37:04.892Z,8.05
2023-05-14T20:39:32.495Z,8.23
2023-05-14T20:41:59.937Z,6.60
2023-05-14T20:44:27.196Z,9.00
2023-05-14T20:46:54.910Z,8.55
2023-05-14T20:49:22.311Z,7.47
2023-05-14T20:51:49.696Z,6.95
2023-05-14T20:54:18.476Z,7.70
2023-05-14T20:56:46.090Z,7.45
2023-05-14T20:59:13.401Z,6.67
2023-05-14T21:01:40.843Z,6.45
2023-05-14T21:04:11.171Z,7.15
2023-05-14T21:06:44.793Z,9.18
2023-05-14T21:09:17.010Z,5.20
2023-05-14T21:11:46.116Z,6.82
2023-05-14T21:14:14.958Z,5.95
2023-05-14T21:16:42.656Z,8.45
2023-05-14T21:19:10.160Z,6.30
2023-05-14T21:21:37.962Z,6.30
2023-05-14T21:24:06.326Z,5.90
2023-05-14T21:26:34.688Z,7.88
2023-05-14T21:31:33.457Z,7.45
2023-05-14T21:34:04.018Z,5.30
2023-05-14T21:36:31.569Z,5.28
2023-05-14T21:38:58.935Z,3.87
2023-05-14T21:41:26.474Z,6.25
2023-05-14T21:43:55.109Z,5.70
2023-05-14T21:46:22.339Z,6.10
2023-05-14T21:48:49.745Z,5.80
2023-05-14T21:51:17.732Z,6.77
2023-05-14T21:53:46.357Z,7.20
2023-05-14T21:58:42.163Z,6.28
2023-05-14T22:01:11.801Z,7.75
2023-05-14T22:03:39.271Z,7.28
2023-05-14T22:06:06.883Z,7.05
2023-05-14T22:08:34.252Z,7.97
2023-05-14T22:11:01.511Z,7.60
2023-05-14T22:13:28.942Z,8.57
2023-05-14T22:16:09.281Z,7.40
2023-05-14T22:18:40.510Z,7.82
2023-05-14T22:21:07.938Z,5.72
2023-05-14T22:23:35.291Z,5.82
2023-05-14T22:26:02.652Z,5.93
2023-05-14T22:28:30.034Z,4.43
2023-05-14T22:31:01.587Z,5.65
2023-05-14T22:33:28.863Z,3.85
2023-05-14T22:35:56.132Z,4.00
2023-05-14T22:38:23.418Z,3.17
2023-05-14T22:40:50.728Z,4.47
2023-05-14T22:43:18.105Z,3.47
2023-05-14T22:45:45.402Z,4.07
2023-05-14T22:48:12.711Z,4.13
2023-05-14T22:50:39.968Z,3.33
2023-05-14T22:53:07.202Z,3.95
2023-05-14T22:55:34.886Z,2.75
2023-05-14T22:58:02.382Z,2.95
2023-05-14T23:00:30.343Z,2.63
2023-05-14T23:02:57.644Z,2.53
2023-05-14T23:05:25.484Z,2.95
2023-05-14T23:07:55.498Z,3.15
2023-05-14T23:10:22.829Z,2.40
2023-05-14T23:12:50.428Z,2.60
2023-05-14T23:15:18.061Z,2.47
2023-05-14T23:17:45.461Z,3.00
2023-05-14T23:20:13.189Z,2.20
2023-05-14T23:22:41.095Z,4.57
2023-05-14T23:25:09.194Z,3.10
2023-05-14T23:27:36.588Z,3.13
2023-05-14T23:30:04.542Z,2.47
2023-05-14T23:32:33.190Z,4.47
2023-05-14T23:35:00.500Z,2.47
2023-05-14T23:37:27.855Z,3.92
2023-05-14T23:39:55.202Z,2.78
2023-05-14T23:42:24.878Z,3.22
2023-05-14T23:44:52.120Z,4.53
2023-05-14T23:47:22.394Z,3.35
2023-05-14T23:49:49.738Z,2.78
2023-05-14T23:52:16.984Z,3.20
2023-05-14T23:54:44.392Z,3.03
2023-05-14T23:57:14.213Z,2.60
2023-05-14T23:59:41.808Z,2.47
